2016 Cux-Wetter.de -Die Nutzung der Wetterdaten nur mit ausdrcklicher Genehmigung
Wetterdaten: Woche 29.08.16 - 04.09.16 (KW35)
Datum Zeit Temp. A. Feuchte A. Luftdruck Regen Wind Richtung Sonnenschein Solar Taupunkt Windchill Windben
29.08.2016 00:00 18,8 C 87 % 1010,7 hPa 0,0 l/m 14,5 km/h (3 Bft) SW 0,00 h 0 W/m 16,7 C 16,0 C 23,0 km/h (4 Bft)
29.08.2016 01:00 18,5 C 91 % 1010,5 hPa 0,2 l/m 13,4 km/h (3 Bft) SW 0,00 h 0 W/m 16,9 C 15,9 C 23,2 km/h (4 Bft)
29.08.2016 02:00 18,3 C 92 % 1009,9 hPa 1,0 l/m 14,5 km/h (3 Bft) SW 0,00 h 0 W/m 17,0 C 15,4 C 24,1 km/h (4 Bft)
29.08.2016 03:00 17,8 C 92 % 1009,7 hPa 0,4 l/m 13,6 km/h (3 Bft) W 0,00 h 0 W/m 16,5 C 15,0 C 25,1 km/h (4 Bft)
29.08.2016 04:00 17,8 C 90 % 1009,9 hPa 0,0 l/m 13,1 km/h (3 Bft) W 0,00 h 0 W/m 16,1 C 15,2 C 23,8 km/h (4 Bft)
29.08.2016 05:00 17,8 C 91 % 1010,1 hPa 0,4 l/m 9,4 km/h (2 Bft) W 0,00 h 0 W/m 16,3 C 16,5 C 19,6 km/h (3 Bft)
29.08.2016 06:00 17,4 C 90 % 1010,5 hPa 0,0 l/m 7,0 km/h (2 Bft) W-NW 0,00 h 6 W/m 15,7 C 16,9 C 15,9 km/h (3 Bft)
29.08.2016 07:00 17,7 C 88 % 1011,2 hPa 0,2 l/m 12,2 km/h (2 Bft) NW 0,00 h 25 W/m 15,6 C 15,4 C 23,2 km/h (4 Bft)
29.08.2016 08:00 17,7 C 84 % 1012,2 hPa 0,0 l/m 15,7 km/h (3 Bft) NW 0,00 h 66 W/m 15,0 C 14,3 C 26,3 km/h (4 Bft)
29.08.2016 09:00 17,8 C 81 % 1013,1 hPa 0,0 l/m 14,6 km/h (3 Bft) N-NW 0,00 h 87 W/m 14,5 C 14,7 C 25,3 km/h (4 Bft)
29.08.2016 10:00 18,5 C 78 % 1013,9 hPa 0,0 l/m 11,6 km/h (2 Bft) W-NW 0,00 h 160 W/m 14,5 C 16,5 C 22,7 km/h (4 Bft)
29.08.2016 11:00 18,8 C 76 % 1014,7 hPa 0,0 l/m 10,9 km/h (2 Bft) NW 0,00 h 182 W/m 14,5 C 17,0 C 21,8 km/h (4 Bft)
29.08.2016 12:00 18,9 C 75 % 1015,4 hPa 0,0 l/m 12,2 km/h (2 Bft) N-NW 0,05 h 248 W/m 14,4 C 16,7 C 22,1 km/h (4 Bft)
29.08.2016 13:00 18,9 C 73 % 1016,2 hPa 0,0 l/m 12,6 km/h (2 Bft) NW 0,55 h 444 W/m 13,9 C 16,6 C 24,4 km/h (4 Bft)
29.08.2016 14:00 19,7 C 68 % 1017,0 hPa 0,0 l/m 11,5 km/h (2 Bft) NW 0,85 h 708 W/m 13,6 C 17,9 C 22,6 km/h (4 Bft)
29.08.2016 15:00 19,5 C 67 % 1017,5 hPa 0,0 l/m 11,6 km/h (2 Bft) W-NW 0,70 h 528 W/m 13,2 C 17,6 C 22,9 km/h (4 Bft)
29.08.2016 16:00 19,2 C 70 % 1018,0 hPa 0,0 l/m 10,9 km/h (2 Bft) W 0,45 h 358 W/m 13,6 C 17,5 C 21,1 km/h (4 Bft)
29.08.2016 17:00 18,5 C 71 % 1018,6 hPa 0,0 l/m 11,1 km/h (2 Bft) NW 0,15 h 153 W/m 13,2 C 16,7 C 20,9 km/h (4 Bft)
29.08.2016 18:00 18,2 C 73 % 1018,9 hPa 0,0 l/m 10,7 km/h (2 Bft) NW 0,25 h 108 W/m 13,3 C 16,4 C 21,6 km/h (4 Bft)
29.08.2016 19:00 17,6 C 73 % 1019,3 hPa 0,0 l/m 10,2 km/h (2 Bft) W 0,10 h 43 W/m 12,8 C 15,9 C 20,9 km/h (4 Bft)
29.08.2016 20:00 16,9 C 76 % 1019,7 hPa 0,0 l/m 8,2 km/h (2 Bft) W-NW 0,00 h 7 W/m 12,6 C 16,0 C 17,2 km/h (3 Bft)
29.08.2016 21:00 16,8 C 75 % 1020,3 hPa 0,0 l/m 8,6 km/h (2 Bft) NW 0,00 h 0 W/m 12,4 C 15,8 C 18,0 km/h (3 Bft)
29.08.2016 22:00 16,9 C 75 % 1020,9 hPa 0,0 l/m 8,1 km/h (2 Bft) W 0,00 h 0 W/m 12,5 C 16,0 C 17,9 km/h (3 Bft)
29.08.2016 23:00 16,8 C 78 % 1021,4 hPa 0,0 l/m 7,4 km/h (2 Bft) W-NW 0,00 h 0 W/m 12,9 C 16,2 C 16,0 km/h (3 Bft)
30.08.2016 00:00 16,7 C 79 % 1021,7 hPa 0,0 l/m 7,0 km/h (2 Bft) W 0,00 h 0 W/m 13,0 C 16,4 C 15,3 km/h (3 Bft)
30.08.2016 01:00 16,6 C 79 % 1022,0 hPa 0,0 l/m 6,1 km/h (2 Bft) W 0,00 h 0 W/m 13,0 C 16,4 C 13,9 km/h (3 Bft)
30.08.2016 02:00 16,6 C 79 % 1022,1 hPa 0,0 l/m 6,7 km/h (2 Bft) W 0,00 h 0 W/m 12,9 C 16,1 C 13,8 km/h (3 Bft)
30.08.2016 03:00 16,4 C 80 % 1022,2 hPa 0,0 l/m 6,9 km/h (2 Bft) W 0,00 h 0 W/m 12,9 C 15,9 C 13,5 km/h (3 Bft)
30.08.2016 04:00 16,4 C 80 % 1022,4 hPa 0,0 l/m 6,3 km/h (2 Bft) W 0,00 h 0 W/m 13,0 C 16,1 C 13,1 km/h (3 Bft)
30.08.2016 05:00 16,2 C 83 % 1022,6 hPa 0,0 l/m 5,0 km/h (1 Bft) W 0,00 h 0 W/m 13,3 C 16,1 C 10,1 km/h (2 Bft)
30.08.2016 06:00 15,8 C 88 % 1022,9 hPa 0,0 l/m 8,8 km/h (2 Bft) SW 0,00 h 9 W/m 13,7 C 14,6 C 15,0 km/h (3 Bft)
30.08.2016 07:00 15,6 C 90 % 1023,0 hPa 0,0 l/m 8,4 km/h (2 Bft) SW 0,00 h 15 W/m 13,9 C 14,5 C 14,4 km/h (3 Bft)
30.08.2016 08:00 16,3 C 88 % 1023,3 hPa 0,0 l/m 10,2 km/h (2 Bft) SW 0,00 h 30 W/m 14,3 C 14,5 C 17,0 km/h (3 Bft)
30.08.2016 09:00 17,1 C 86 % 1023,8 hPa 0,0 l/m 11,7 km/h (2 Bft) SW 0,00 h 40 W/m 14,7 C 14,8 C 20,7 km/h (4 Bft)
30.08.2016 10:00 18,0 C 84 % 1024,3 hPa 0,0 l/m 11,8 km/h (2 Bft) SW 0,00 h 59 W/m 15,2 C 15,8 C 20,2 km/h (4 Bft)
30.08.2016 11:00 18,8 C 82 % 1024,8 hPa 0,0 l/m 12,4 km/h (2 Bft) S-SW 0,00 h 121 W/m 15,6 C 16,6 C 20,4 km/h (4 Bft)
30.08.2016 12:00 19,6 C 79 % 1024,9 hPa 0,0 l/m 11,2 km/h (2 Bft) SW 0,95 h 641 W/m 15,8 C 17,9 C 19,5 km/h (3 Bft)
30.08.2016 13:00 20,7 C 74 % 1024,8 hPa 0,0 l/m 10,6 km/h (2 Bft) SW 1,00 h 647 W/m 15,8 C 19,2 C 18,7 km/h (3 Bft)
30.08.2016 14:00 21,1 C 72 % 1024,8 hPa 0,0 l/m 10,4 km/h (2 Bft) W-SW 1,00 h 681 W/m 15,9 C 19,8 C 19,0 km/h (3 Bft)
30.08.2016 15:00 21,7 C 70 % 1024,7 hPa 0,0 l/m 8,2 km/h (2 Bft) W-NW 1,00 h 604 W/m 16,0 C 21,1 C 15,9 km/h (3 Bft)
30.08.2016 16:00 21,5 C 69 % 1024,4 hPa 0,0 l/m 8,6 km/h (2 Bft) W 1,00 h 490 W/m 15,6 C 20,8 C 15,3 km/h (3 Bft)
30.08.2016 17:00 20,8 C 70 % 1023,9 hPa 0,0 l/m 7,3 km/h (2 Bft) W 0,45 h 195 W/m 15,1 C 20,4 C 14,7 km/h (3 Bft)
30.08.2016 18:00 20,2 C 72 % 1023,6 hPa 0,0 l/m 5,9 km/h (2 Bft) W 0,00 h 47 W/m 15,0 C 20,0 C 12,3 km/h (2 Bft)
30.08.2016 19:00 19,4 C 75 % 1023,5 hPa 0,0 l/m 3,9 km/h (1 Bft) W 0,00 h 25 W/m 14,8 C 19,4 C 8,8 km/h (2 Bft)
30.08.2016 20:00 17,3 C 84 % 1023,5 hPa 0,0 l/m 0,9 km/h (0 Bft) W 0,00 h 7 W/m 14,6 C 17,3 C 2,4 km/h (1 Bft)
30.08.2016 21:00 15,6 C 91 % 1023,6 hPa 0,0 l/m 0,0 km/h (0 Bft) N 0,00 h 0 W/m 14,1 C 15,6 C 0,6 km/h (0 Bft)
30.08.2016 22:00 14,9 C 93 % 1023,4 hPa 0,0 l/m 0,0 km/h (0 Bft) N 0,00 h 0 W/m 13,8 C 14,9 C 0,7 km/h (0 Bft)
30.08.2016 23:00 14,6 C 95 % 1023,3 hPa 0,0 l/m 0,0 km/h (0 Bft) N 0,00 h 0 W/m 13,7 C 14,6 C 0,0 km/h (0 Bft)
31.08.2016 00:00 14,0 C 95 % 1023,2 hPa 0,0 l/m 0,0 km/h (0 Bft) N 0,00 h 0 W/m 13,3 C 14,0 C 0,0 km/h (0 Bft)
31.08.2016 01:00 13,4 C 95 % 1022,9 hPa 0,0 l/m 0,0 km/h (0 Bft) N 0,00 h 0 W/m 12,7 C 13,4 C 0,0 km/h (0 Bft)
31.08.2016 02:00 13,3 C 96 % 1022,7 hPa 0,0 l/m 0,9 km/h (0 Bft) SO 0,00 h 0 W/m 12,7 C 13,3 C 2,6 km/h (1 Bft)
31.08.2016 03:00 13,4 C 96 % 1022,5 hPa 0,0 l/m 1,6 km/h (1 Bft) SO 0,00 h 0 W/m 12,8 C 13,4 C 3,8 km/h (1 Bft)
31.08.2016 04:00 13,0 C 96 % 1022,1 hPa 0,0 l/m 2,9 km/h (1 Bft) SO 0,00 h 0 W/m 12,4 C 13,0 C 6,1 km/h (2 Bft)
31.08.2016 05:00 12,7 C 97 % 1021,7 hPa 0,0 l/m 3,3 km/h (1 Bft) SO 0,00 h 0 W/m 12,2 C 12,7 C 7,1 km/h (2 Bft)
31.08.2016 06:00 12,4 C 96 % 1021,6 hPa 0,0 l/m 3,1 km/h (1 Bft) S-SO 0,00 h 6 W/m 11,8 C 12,4 C 6,7 km/h (2 Bft)
31.08.2016 07:00 12,5 C 96 % 1021,3 hPa 0,0 l/m 4,4 km/h (1 Bft) SO 0,00 h 15 W/m 11,8 C 12,5 C 9,1 km/h (2 Bft)
31.08.2016 08:00 13,8 C 93 % 1021,0 hPa 0,0 l/m 6,1 km/h (2 Bft) SO 0,00 h 27 W/m 12,7 C 13,7 C 11,5 km/h (2 Bft)
31.08.2016 09:00 15,6 C 89 % 1020,7 hPa 0,0 l/m 6,4 km/h (2 Bft) SO 0,00 h 39 W/m 13,8 C 15,4 C 12,6 km/h (2 Bft)
31.08.2016 10:00 17,6 C 83 % 1020,4 hPa 0,0 l/m 7,1 km/h (2 Bft) S-SO 0,00 h 41 W/m 14,7 C 17,2 C 13,5 km/h (3 Bft)
31.08.2016 11:00 20,0 C 71 % 1020,2 hPa 0,0 l/m 6,7 km/h (2 Bft) S 0,00 h 60 W/m 14,5 C 19,8 C 13,1 km/h (3 Bft)
31.08.2016 12:00 23,0 C 58 % 1019,8 hPa 0,0 l/m 7,6 km/h (2 Bft) S 1,00 h 666 W/m 14,3 C 22,6 C 15,4 km/h (3 Bft)
31.08.2016 13:00 24,4 C 56 % 1019,2 hPa 0,0 l/m 9,0 km/h (2 Bft) SO 1,00 h 637 W/m 15,1 C 23,8 C 17,2 km/h (3 Bft)
31.08.2016 14:00 25,1 C 52 % 1018,5 hPa 0,0 l/m 9,6 km/h (2 Bft) S-SO 1,00 h 622 W/m 14,6 C 24,4 C 18,7 km/h (3 Bft)
31.08.2016 15:00 25,3 C 46 % 1018,0 hPa 0,0 l/m 8,2 km/h (2 Bft) SW 0,85 h 516 W/m 12,9 C 24,9 C 15,0 km/h (3 Bft)
31.08.2016 16:00 24,7 C 50 % 1017,7 hPa 0,0 l/m 8,3 km/h (2 Bft) SW 0,95 h 465 W/m 13,5 C 24,2 C 14,4 km/h (3 Bft)
31.08.2016 17:00 24,1 C 52 % 1017,6 hPa 0,0 l/m 6,5 km/h (2 Bft) W-SW 0,35 h 182 W/m 13,5 C 24,0 C 12,7 km/h (3 Bft)
31.08.2016 18:00 23,0 C 58 % 1017,4 hPa 0,0 l/m 5,0 km/h (1 Bft) W 0,00 h 55 W/m 14,3 C 22,9 C 9,8 km/h (2 Bft)
31.08.2016 19:00 21,9 C 66 % 1017,3 hPa 0,0 l/m 2,7 km/h (1 Bft) W-SW 0,00 h 32 W/m 15,2 C 21,9 C 5,0 km/h (1 Bft)
31.08.2016 20:00 18,9 C 79 % 1017,4 hPa 0,0 l/m 0,7 km/h (0 Bft) SW 0,00 h 5 W/m 15,3 C 18,9 C 2,2 km/h (1 Bft)
31.08.2016 21:00 17,2 C 84 % 1017,6 hPa 0,0 l/m 0,5 km/h (0 Bft) SW 0,00 h 0 W/m 14,5 C 17,2 C 1,8 km/h (1 Bft)
31.08.2016 22:00 16,2 C 89 % 1017,6 hPa 0,0 l/m 0,1 km/h (0 Bft) N 0,00 h 0 W/m 14,3 C 16,2 C 0,5 km/h (0 Bft)
31.08.2016 23:00 16,5 C 90 % 1017,8 hPa 0,0 l/m 0,4 km/h (0 Bft) SW 0,00 h 0 W/m 14,9 C 16,5 C 1,0 km/h (0 Bft)
01.09.2016 00:00 16,0 C 92 % 1017,7 hPa 0,0 l/m 0,0 km/h (0 Bft) N 0,00 h 0 W/m 14,7 C 16,0 C 0,3 km/h (0 Bft)
01.09.2016 01:00 15,2 C 94 % 1017,7 hPa 0,0 l/m 0,0 km/h (0 Bft) N 0,00 h 0 W/m 14,2 C 15,2 C 0,2 km/h (0 Bft)
01.09.2016 02:00 15,6 C 93 % 1017,8 hPa 0,0 l/m 2,5 km/h (1 Bft) SW 0,00 h 0 W/m 14,4 C 15,5 C 5,6 km/h (2 Bft)
01.09.2016 03:00 18,1 C 87 % 1017,9 hPa 0,0 l/m 6,9 km/h (2 Bft) W 0,00 h 0 W/m 15,9 C 17,8 C 13,8 km/h (3 Bft)
01.09.2016 04:00 17,9 C 90 % 1017,8 hPa 0,0 l/m 3,2 km/h (1 Bft) W-SW 0,00 h 0 W/m 16,3 C 17,9 C 6,8 km/h (2 Bft)
01.09.2016 05:00 16,0 C 93 % 1017,9 hPa 0,0 l/m 2,2 km/h (1 Bft) W-SW 0,00 h 0 W/m 14,9 C 16,0 C 4,1 km/h (1 Bft)
01.09.2016 06:00 17,0 C 94 % 1018,0 hPa 0,0 l/m 3,6 km/h (1 Bft) SW 0,00 h 7 W/m 16,0 C 17,0 C 6,4 km/h (2 Bft)
01.09.2016 07:00 17,5 C 94 % 1018,1 hPa 0,0 l/m 5,2 km/h (1 Bft) SW 0,00 h 31 W/m 16,4 C 17,5 C 8,5 km/h (2 Bft)
01.09.2016 08:00 18,6 C 90 % 1018,3 hPa 0,0 l/m 7,8 km/h (2 Bft) W-SW 0,05 h 120 W/m 16,8 C 17,9 C 13,2 km/h (3 Bft)
01.09.2016 09:00 19,1 C 88 % 1018,7 hPa 0,0 l/m 9,6 km/h (2 Bft) SW 0,00 h 145 W/m 17,1 C 17,8 C 15,4 km/h (3 Bft)
01.09.2016 10:00 19,6 C 87 % 1019,1 hPa 0,0 l/m 10,6 km/h (2 Bft) SW 0,00 h 183 W/m 17,5 C 18,1 C 17,1 km/h (3 Bft)
01.09.2016 11:00 20,0 C 87 % 1019,3 hPa 0,0 l/m 11,1 km/h (2 Bft) SW 0,00 h 174 W/m 17,7 C 18,3 C 17,6 km/h (3 Bft)
01.09.2016 12:00 20,0 C 86 % 1019,3 hPa 0,0 l/m 10,5 km/h (2 Bft) W 0,05 h 195 W/m 17,7 C 18,6 C 20,2 km/h (4 Bft)
01.09.2016 13:00 20,6 C 79 % 1019,4 hPa 0,0 l/m 10,0 km/h (2 Bft) W 0,50 h 488 W/m 16,8 C 19,3 C 20,3 km/h (4 Bft)
01.09.2016 14:00 21,4 C 72 % 1019,5 hPa 0,0 l/m 10,7 km/h (2 Bft) W 0,95 h 675 W/m 16,1 C 20,0 C 20,6 km/h (4 Bft)
01.09.2016 15:00 21,3 C 70 % 1019,5 hPa 0,0 l/m 10,6 km/h (2 Bft) W-NW 1,00 h 605 W/m 15,5 C 20,0 C 20,4 km/h (4 Bft)
01.09.2016 16:00 21,0 C 68 % 1019,7 hPa 0,0 l/m 9,0 km/h (2 Bft) W-NW 1,00 h 492 W/m 14,8 C 20,1 C 17,6 km/h (3 Bft)
01.09.2016 17:00 20,0 C 70 % 1019,8 hPa 0,0 l/m 9,4 km/h (2 Bft) W-SW 0,20 h 137 W/m 14,3 C 18,9 C 17,6 km/h (3 Bft)
01.09.2016 18:00 19,3 C 75 % 1019,7 hPa 0,0 l/m 9,0 km/h (2 Bft) W 0,00 h 65 W/m 14,6 C 18,2 C 17,6 km/h (3 Bft)
01.09.2016 19:00 18,4 C 76 % 1019,7 hPa 0,0 l/m 8,7 km/h (2 Bft) W 0,00 h 31 W/m 14,1 C 17,3 C 17,1 km/h (3 Bft)
01.09.2016 20:00 17,5 C 80 % 1019,9 hPa 0,0 l/m 6,2 km/h (2 Bft) W 0,05 h 9 W/m 13,9 C 17,3 C 14,2 km/h (3 Bft)
01.09.2016 21:00 16,7 C 80 % 1019,9 hPa 0,0 l/m 5,4 km/h (2 Bft) W 0,00 h 0 W/m 13,3 C 16,7 C 12,1 km/h (2 Bft)
01.09.2016 22:00 16,6 C 80 % 1019,8 hPa 0,0 l/m 5,5 km/h (2 Bft) W 0,00 h 0 W/m 13,1 C 16,5 C 11,8 km/h (2 Bft)
01.09.2016 23:00 16,8 C 77 % 1019,8 hPa 0,0 l/m 6,7 km/h (2 Bft) W 0,00 h 0 W/m 12,7 C 16,4 C 13,2 km/h (3 Bft)
02.09.2016 00:00 17,2 C 75 % 1019,5 hPa 0,0 l/m 6,2 km/h (2 Bft) W 0,00 h 0 W/m 12,8 C 17,0 C 13,5 km/h (3 Bft)
02.09.2016 01:00 16,9 C 74 % 1019,3 hPa 0,0 l/m 6,6 km/h (2 Bft) W 0,00 h 0 W/m 12,3 C 16,6 C 13,5 km/h (3 Bft)
02.09.2016 02:00 16,9 C 76 % 1019,1 hPa 0,0 l/m 6,6 km/h (2 Bft) W-SW 0,00 h 0 W/m 12,7 C 16,6 C 13,5 km/h (3 Bft)
02.09.2016 03:00 16,5 C 78 % 1019,3 hPa 0,0 l/m 7,4 km/h (2 Bft) SW 0,00 h 0 W/m 12,7 C 15,9 C 14,0 km/h (3 Bft)
02.09.2016 04:00 16,0 C 83 % 1018,8 hPa 0,0 l/m 7,1 km/h (2 Bft) SW 0,00 h 0 W/m 13,1 C 15,3 C 12,0 km/h (2 Bft)
02.09.2016 05:00 16,1 C 84 % 1018,6 hPa 0,0 l/m 6,8 km/h (2 Bft) SW 0,00 h 0 W/m 13,4 C 15,8 C 11,8 km/h (2 Bft)
02.09.2016 06:00 15,3 C 87 % 1018,3 hPa 0,0 l/m 4,6 km/h (1 Bft) S 0,00 h 6 W/m 13,1 C 15,2 C 8,5 km/h (2 Bft)
02.09.2016 07:00 14,9 C 91 % 1018,2 hPa 0,0 l/m 4,5 km/h (1 Bft) S-SW 0,00 h 29 W/m 13,4 C 14,9 C 9,1 km/h (2 Bft)
02.09.2016 08:00 15,5 C 88 % 1018,2 hPa 0,0 l/m 5,2 km/h (1 Bft) S 0,00 h 72 W/m 13,5 C 15,5 C 10,1 km/h (2 Bft)
02.09.2016 09:00 16,8 C 84 % 1018,1 hPa 0,0 l/m 9,0 km/h (2 Bft) S-SW 0,00 h 120 W/m 14,1 C 15,5 C 16,7 km/h (3 Bft)
02.09.2016 10:00 18,0 C 81 % 1018,1 hPa 0,0 l/m 11,0 km/h (2 Bft) SW 0,00 h 169 W/m 14,7 C 16,2 C 18,6 km/h (3 Bft)
02.09.2016 11:00 18,9 C 78 % 1018,0 hPa 0,0 l/m 12,4 km/h (2 Bft) SW 0,00 h 214 W/m 14,9 C 16,6 C 21,5 km/h (4 Bft)
02.09.2016 12:00 19,6 C 76 % 1017,8 hPa 0,0 l/m 15,5 km/h (3 Bft) SW 0,50 h 363 W/m 15,3 C 16,6 C 24,5 km/h (4 Bft)
02.09.2016 13:00 19,6 C 77 % 1017,6 hPa 0,0 l/m 13,8 km/h (3 Bft) SW 0,10 h 245 W/m 15,4 C 17,1 C 22,5 km/h (4 Bft)
02.09.2016 14:00 19,4 C 78 % 1016,5 hPa 0,0 l/m 9,5 km/h (2 Bft) S-SW 0,00 h 141 W/m 15,5 C 18,2 C 16,5 km/h (3 Bft)
02.09.2016 15:00 19,2 C 84 % 1015,6 hPa 0,0 l/m 6,4 km/h (2 Bft) S 0,00 h 181 W/m 16,4 C 19,0 C 12,9 km/h (3 Bft)
02.09.2016 16:00 20,2 C 77 % 1015,5 hPa 0,0 l/m 8,6 km/h (2 Bft) SW 0,00 h 146 W/m 16,1 C 19,3 C 15,2 km/h (3 Bft)
02.09.2016 17:00 20,5 C 76 % 1015,1 hPa 0,0 l/m 8,0 km/h (2 Bft) SW 0,20 h 154 W/m 16,2 C 19,8 C 13,5 km/h (3 Bft)
02.09.2016 18:00 20,1 C 80 % 1015,3 hPa 0,0 l/m 5,5 km/h (2 Bft) SW 0,00 h 56 W/m 16,5 C 20,1 C 10,3 km/h (2 Bft)
02.09.2016 19:00 19,6 C 80 % 1015,2 hPa 0,0 l/m 6,9 km/h (2 Bft) SW 0,00 h 19 W/m 16,0 C 19,0 C 12,8 km/h (3 Bft)
02.09.2016 20:00 19,1 C 80 % 1015,2 hPa 0,0 l/m 8,7 km/h (2 Bft) SW 0,00 h 0 W/m 15,5 C 18,1 C 15,3 km/h (3 Bft)
02.09.2016 21:00 18,8 C 82 % 1015,4 hPa 0,2 l/m 9,5 km/h (2 Bft) SW 0,00 h 0 W/m 15,7 C 17,5 C 15,5 km/h (3 Bft)
02.09.2016 22:00 17,5 C 88 % 1015,4 hPa 0,2 l/m 9,3 km/h (2 Bft) SW 0,00 h 0 W/m 15,5 C 16,3 C 15,7 km/h (3 Bft)
02.09.2016 23:00 16,9 C 89 % 1015,1 hPa 0,0 l/m 6,4 km/h (2 Bft) S-SW 0,00 h 0 W/m 15,1 C 16,5 C 10,8 km/h (2 Bft)
03.09.2016 00:00 17,3 C 88 % 1015,2 hPa 0,0 l/m 12,9 km/h (3 Bft) SW 0,00 h 0 W/m 15,2 C 14,6 C 21,8 km/h (4 Bft)
03.09.2016 01:00 17,2 C 89 % 1014,8 hPa 0,0 l/m 12,3 km/h (2 Bft) SW 0,00 h 0 W/m 15,2 C 14,7 C 21,7 km/h (4 Bft)
03.09.2016 02:00 16,9 C 91 % 1014,6 hPa 0,0 l/m 8,8 km/h (2 Bft) SW 0,00 h 0 W/m 15,4 C 15,8 C 17,9 km/h (3 Bft)
03.09.2016 03:00 17,0 C 91 % 1014,3 hPa 0,0 l/m 8,9 km/h (2 Bft) SW 0,00 h 0 W/m 15,5 C 15,9 C 16,0 km/h (3 Bft)
03.09.2016 04:00 16,9 C 92 % 1014,0 hPa 0,0 l/m 10,5 km/h (2 Bft) SW 0,00 h 0 W/m 15,5 C 15,0 C 16,8 km/h (3 Bft)
03.09.2016 05:00 16,9 C 92 % 1013,9 hPa 0,0 l/m 10,9 km/h (2 Bft) SW 0,00 h 0 W/m 15,6 C 14,9 C 18,3 km/h (3 Bft)
03.09.2016 06:00 17,0 C 93 % 1013,7 hPa 0,0 l/m 8,7 km/h (2 Bft) SW 0,00 h 0 W/m 15,9 C 15,9 C 15,6 km/h (3 Bft)
03.09.2016 07:00 16,9 C 94 % 1013,7 hPa 0,4 l/m 11,2 km/h (2 Bft) SW 0,00 h 10 W/m 15,9 C 14,8 C 18,3 km/h (3 Bft)
03.09.2016 08:00 16,8 C 95 % 1014,0 hPa 0,0 l/m 11,3 km/h (2 Bft) SW 0,00 h 46 W/m 16,0 C 14,6 C 17,8 km/h (3 Bft)
03.09.2016 09:00 17,1 C 94 % 1014,4 hPa 0,0 l/m 13,3 km/h (3 Bft) SW 0,00 h 93 W/m 16,2 C 14,3 C 20,8 km/h (4 Bft)
03.09.2016 10:00 17,9 C 92 % 1014,9 hPa 0,0 l/m 12,5 km/h (2 Bft) SW 0,00 h 184 W/m 16,6 C 15,5 C 22,0 km/h (4 Bft)
03.09.2016 11:00 18,9 C 87 % 1014,9 hPa 0,0 l/m 10,9 km/h (2 Bft) W-SW 0,05 h 150 W/m 16,7 C 17,2 C 19,9 km/h (4 Bft)
03.09.2016 12:00 19,7 C 81 % 1014,5 hPa 0,0 l/m 10,9 km/h (2 Bft) SW 0,75 h 496 W/m 16,3 C 18,1 C 18,2 km/h (3 Bft)
03.09.2016 13:00 19,7 C 78 % 1014,3 hPa 0,0 l/m 9,7 km/h (2 Bft) SW 0,25 h 285 W/m 15,8 C 18,5 C 15,9 km/h (3 Bft)
03.09.2016 14:00 19,5 C 78 % 1014,1 hPa 0,0 l/m 8,1 km/h (2 Bft) SW 0,05 h 150 W/m 15,6 C 18,8 C 13,7 km/h (3 Bft)
03.09.2016 15:00 20,6 C 76 % 1014,3 hPa 0,0 l/m 8,7 km/h (2 Bft) W 0,60 h 447 W/m 16,1 C 19,7 C 18,2 km/h (3 Bft)
03.09.2016 16:00 20,3 C 72 % 1014,1 hPa 0,0 l/m 10,8 km/h (2 Bft) W-SW 0,50 h 277 W/m 15,0 C 18,7 C 19,9 km/h (4 Bft)
03.09.2016 17:00 19,2 C 76 % 1013,9 hPa 0,0 l/m 7,3 km/h (2 Bft) W-NW 0,00 h 125 W/m 14,9 C 18,6 C 16,7 km/h (3 Bft)
03.09.2016 18:00 18,8 C 78 % 1013,8 hPa 0,0 l/m 5,0 km/h (1 Bft) W 0,00 h 78 W/m 14,9 C 18,7 C 11,4 km/h (2 Bft)
03.09.2016 19:00 18,1 C 78 % 1013,4 hPa 0,0 l/m 3,6 km/h (1 Bft) W 0,00 h 27 W/m 14,2 C 18,1 C 7,6 km/h (2 Bft)
03.09.2016 20:00 16,7 C 85 % 1013,1 hPa 0,0 l/m 0,7 km/h (0 Bft) W-SW 0,00 h 0 W/m 14,1 C 16,7 C 2,2 km/h (1 Bft)
03.09.2016 21:00 15,9 C 90 % 1012,7 hPa 0,0 l/m 0,4 km/h (0 Bft) O 0,00 h 0 W/m 14,2 C 15,9 C 1,4 km/h (1 Bft)
03.09.2016 22:00 15,8 C 93 % 1012,1 hPa 0,0 l/m 1,4 km/h (1 Bft) SO 0,00 h 0 W/m 14,6 C 15,8 C 3,5 km/h (1 Bft)
03.09.2016 23:00 15,7 C 94 % 1011,3 hPa 0,2 l/m 1,4 km/h (1 Bft) SO 0,00 h 0 W/m 14,8 C 15,7 C 3,1 km/h (1 Bft)
04.09.2016 00:00 15,5 C 95 % 1010,4 hPa 0,0 l/m 1,2 km/h (1 Bft) SO 0,00 h 0 W/m 14,7 C 15,5 C 3,5 km/h (1 Bft)
04.09.2016 01:00 15,3 C 95 % 1009,9 hPa 0,4 l/m 3,5 km/h (1 Bft) O-SO 0,00 h 0 W/m 14,5 C 15,3 C 7,4 km/h (2 Bft)
04.09.2016 02:00 15,3 C 96 % 1009,1 hPa 0,8 l/m 4,8 km/h (1 Bft) SO 0,00 h 0 W/m 14,6 C 15,3 C 11,7 km/h (2 Bft)
04.09.2016 03:00 16,0 C 97 % 1008,3 hPa 1,4 l/m 4,8 km/h (1 Bft) S 0,00 h 0 W/m 15,5 C 16,0 C 11,7 km/h (2 Bft)
04.09.2016 04:00 16,5 C 97 % 1007,6 hPa 1,0 l/m 8,4 km/h (2 Bft) SW 0,00 h 0 W/m 16,0 C 15,5 C 17,7 km/h (3 Bft)
04.09.2016 05:00 16,5 C 97 % 1007,0 hPa 2,4 l/m 11,3 km/h (2 Bft) SW 0,00 h 0 W/m 16,0 C 14,2 C 21,3 km/h (4 Bft)
04.09.2016 06:00 16,7 C 97 % 1006,5 hPa 0,8 l/m 10,8 km/h (2 Bft) SW 0,00 h 0 W/m 16,2 C 14,7 C 18,5 km/h (3 Bft)
04.09.2016 07:00 17,1 C 97 % 1006,3 hPa 0,2 l/m 13,8 km/h (3 Bft) SW 0,00 h 11 W/m 16,7 C 14,1 C 21,6 km/h (4 Bft)
04.09.2016 08:00 17,6 C 97 % 1006,2 hPa 0,0 l/m 14,3 km/h (3 Bft) S-SW 0,00 h 51 W/m 17,1 C 14,5 C 22,8 km/h (4 Bft)
04.09.2016 09:00 17,8 C 96 % 1006,1 hPa 0,0 l/m 13,7 km/h (3 Bft) SW 0,00 h 110 W/m 17,1 C 14,9 C 22,1 km/h (4 Bft)
04.09.2016 10:00 18,0 C 96 % 1005,9 hPa 0,2 l/m 13,4 km/h (3 Bft) S-SW 0,00 h 70 W/m 17,3 C 15,4 C 21,7 km/h (4 Bft)
04.09.2016 11:00 18,0 C 96 % 1005,4 hPa 0,6 l/m 10,9 km/h (2 Bft) SW 0,00 h 111 W/m 17,3 C 16,2 C 19,0 km/h (3 Bft)
04.09.2016 12:00 18,4 C 95 % 1005,1 hPa 0,0 l/m 9,5 km/h (2 Bft) SW 0,00 h 94 W/m 17,7 C 17,1 C 17,1 km/h (3 Bft)
04.09.2016 13:00 19,5 C 92 % 1004,8 hPa 0,0 l/m 12,9 km/h (3 Bft) SW 0,20 h 319 W/m 18,2 C 17,3 C 21,2 km/h (4 Bft)
04.09.2016 14:00 19,6 C 89 % 1004,0 hPa 0,2 l/m 12,0 km/h (2 Bft) SW 0,15 h 146 W/m 17,6 C 17,7 C 20,8 km/h (4 Bft)
04.09.2016 15:00 18,5 C 88 % 1003,9 hPa 0,0 l/m 9,9 km/h (2 Bft) SW 0,10 h 228 W/m 16,5 C 17,0 C 16,6 km/h (3 Bft)
04.09.2016 16:00 18,8 C 88 % 1004,0 hPa 0,2 l/m 9,4 km/h (2 Bft) W 0,20 h 161 W/m 16,7 C 17,5 C 18,1 km/h (3 Bft)
04.09.2016 17:00 16,6 C 93 % 1004,6 hPa 3,4 l/m 13,7 km/h (3 Bft) W 0,00 h 29 W/m 15,4 C 13,5 C 25,5 km/h (4 Bft)
04.09.2016 18:00 16,2 C 94 % 1004,7 hPa 0,2 l/m 11,6 km/h (2 Bft) W 0,00 h 57 W/m 15,2 C 13,9 C 21,9 km/h (4 Bft)
04.09.2016 19:00 16,6 C 91 % 1005,1 hPa 0,0 l/m 11,6 km/h (2 Bft) W 0,15 h 33 W/m 15,1 C 14,4 C 22,2 km/h (4 Bft)
04.09.2016 20:00 16,9 C 90 % 1005,6 hPa 0,0 l/m 12,2 km/h (2 Bft) W 0,00 h 8 W/m 15,2 C 14,4 C 22,6 km/h (4 Bft)
04.09.2016 21:00 16,8 C 88 % 1006,0 hPa 0,0 l/m 7,6 km/h (2 Bft) W 0,00 h 0 W/m 14,9 C 16,2 C 15,8 km/h (3 Bft)
04.09.2016 22:00 16,7 C 90 % 1006,5 hPa 0,0 l/m 6,4 km/h (2 Bft) W 0,00 h 0 W/m 15,0 C 16,5 C 13,9 km/h (3 Bft)
04.09.2016 23:00 16,5 C 91 % 1006,9 hPa 0,0 l/m 6,7 km/h (2 Bft) W 0,00 h 0 W/m 15,0 C 16,1 C 13,6 km/h (3 Bft)
Min-Datum _ 31.08.16 31.08.16 04.09.16 - 30.08.16 - - - 31.08.16 04.09.16 30.08.16
_ Min-Zeit 07:03 15:15 14:42 - 20:27 - - - 06:51 17:33 20:42
Minimum _ 12,1 C 43 % 1003,8 hPa - 0,0 km/h (0 Bft) - - - 11,6 C 12,0 C 0,0 km/h (0 Bft)
Max-Datum _ 31.08.16 31.08.16 30.08.16 04.09.16 02.09.16 - 29.08.16 29.08.16 04.09.16 31.08.16 29.08.16
_ Max-Zeit 15:24 03:48 11:30 17:03 12:33 - 12:00 14:15 13:45 15:24 08:39
Maximum _ 26,1 C 97 % 1024,9 hPa 3,4 l/m 19,7 km/h
SW (3 Bft)
- 0,05 h 863 W/m 18,9 C 26,1 C 35,4 km/h
NW (5 Bft)
Durchschnitt _ 17,9 C 83 % 1016,4 hPa #15,0 l/m 8,0 km/h (2 Bft) SW #21:15 h 190 W/m 14,9 C 16,8 C 14,8 km/h (3 Bft)
2016 Cux-Wetter.de -Die Nutzung der Wetterdaten nur mit ausdrcklicher Genehmigung